Terminal Aerodrome Forecast
Issued by NWS

Home | Current Version | Previous Version | Text Only | Print | Product List | Glossary On
Versions: 1 2 3 4 5 6 7 8 9 10 11 12 13 14 15 16 17 18
000
FTUS41 KBOX 242323
TAFHYA
TAF
KHYA 242323Z 2500/2524 27005KT P6SM SCT070 BKN250
     FM250300 27006KT P6SM FEW250
     FM251500 23006KT P6SM FEW090
     FM251800 19011KT P6SM FEW060=

USA.gov is the U.S. government's official web portal to all federal, state and local government web resources and services.